sensor_id;sensor_type;location;lat;lon;timestamp;temperature;humidity
62912;DHT22;49111;51.028;4.218;2022-08-25T00:01:44;22.40;98.10
62912;DHT22;49111;51.028;4.218;2022-08-25T00:04:13;22.40;98.20
62912;DHT22;49111;51.028;4.218;2022-08-25T00:06:40;22.40;98.20
62912;DHT22;49111;51.028;4.218;2022-08-25T00:09:08;22.30;98.30
62912;DHT22;49111;51.028;4.218;2022-08-25T00:11:35;22.30;98.30
62912;DHT22;49111;51.028;4.218;2022-08-25T00:14:06;22.30;98.30
62912;DHT22;49111;51.028;4.218;2022-08-25T00:16:33;22.30;98.30
62912;DHT22;49111;51.028;4.218;2022-08-25T00:19:05;22.30;98.30
62912;DHT22;49111;51.028;4.218;2022-08-25T00:21:31;22.30;98.50
62912;DHT22;49111;51.028;4.218;2022-08-25T00:23:58;22.30;98.50
62912;DHT22;49111;51.028;4.218;2022-08-25T00:26:26;22.30;98.60
62912;DHT22;49111;51.028;4.218;2022-08-25T00:28:52;22.30;98.60
62912;DHT22;49111;51.028;4.218;2022-08-25T00:31:20;22.30;98.60
62912;DHT22;49111;51.028;4.218;2022-08-25T00:33:48;22.30;98.50
62912;DHT22;49111;51.028;4.218;2022-08-25T00:36:16;22.30;98.50
62912;DHT22;49111;51.028;4.218;2022-08-25T00:38:44;22.30;98.50
62912;DHT22;49111;51.028;4.218;2022-08-25T00:41:13;22.30;98.40
62912;DHT22;49111;51.028;4.218;2022-08-25T00:43:56;22.30;98.40
62912;DHT22;49111;51.028;4.218;2022-08-25T00:46:26;22.30;98.50
62912;DHT22;49111;51.028;4.218;2022-08-25T00:49:13;22.30;98.50
62912;DHT22;49111;51.028;4.218;2022-08-25T00:51:45;22.20;98.60
62912;DHT22;49111;51.028;4.218;2022-08-25T00:54:28;22.20;98.60
62912;DHT22;49111;51.028;4.218;2022-08-25T00:56:55;22.20;98.70
62912;DHT22;49111;51.028;4.218;2022-08-25T00:59:23;22.10;98.90
62912;DHT22;49111;51.028;4.218;2022-08-25T01:01:51;22.00;99.00
62912;DHT22;49111;51.028;4.218;2022-08-25T01:04:18;21.80;98.50
62912;DHT22;49111;51.028;4.218;2022-08-25T01:06:45;21.70;98.30
62912;DHT22;49111;51.028;4.218;2022-08-25T01:09:13;21.70;98.50
62912;DHT22;49111;51.028;4.218;2022-08-25T01:11:40;21.70;98.60
62912;DHT22;49111;51.028;4.218;2022-08-25T01:14:07;21.80;98.70
62912;DHT22;49111;51.028;4.218;2022-08-25T01:16:36;21.80;98.80
62912;DHT22;49111;51.028;4.218;2022-08-25T01:19:03;21.80;98.90
62912;DHT22;49111;51.028;4.218;2022-08-25T01:21:36;21.80;98.90
62912;DHT22;49111;51.028;4.218;2022-08-25T01:24:03;21.80;99.00
62912;DHT22;49111;51.028;4.218;2022-08-25T01:26:31;21.80;99.00
62912;DHT22;49111;51.028;4.218;2022-08-25T01:29:00;21.80;99.10
62912;DHT22;49111;51.028;4.218;2022-08-25T01:31:45;21.70;99.20
62912;DHT22;49111;51.028;4.218;2022-08-25T01:34:12;21.70;99.30
62912;DHT22;49111;51.028;4.218;2022-08-25T01:36:38;21.60;99.40
62912;DHT22;49111;51.028;4.218;2022-08-25T01:39:05;21.60;99.40
62912;DHT22;49111;51.028;4.218;2022-08-25T01:44:18;21.50;99.60
62912;DHT22;49111;51.028;4.218;2022-08-25T01:46:44;21.40;99.60
62912;DHT22;49111;51.028;4.218;2022-08-25T01:49:10;21.40;99.50
62912;DHT22;49111;51.028;4.218;2022-08-25T01:51:55;21.40;99.50
62912;DHT22;49111;51.028;4.218;2022-08-25T01:54:21;21.50;99.50
62912;DHT22;49111;51.028;4.218;2022-08-25T01:56:47;21.40;99.60
62912;DHT22;49111;51.028;4.218;2022-08-25T01:59:17;21.40;99.70
62912;DHT22;49111;51.028;4.218;2022-08-25T02:01:43;21.30;99.90
62912;DHT22;49111;51.028;4.218;2022-08-25T02:04:09;21.20;99.90
62912;DHT22;49111;51.028;4.218;2022-08-25T02:06:35;21.10;99.90
62912;DHT22;49111;51.028;4.218;2022-08-25T02:09:05;21.10;99.90
62912;DHT22;49111;51.028;4.218;2022-08-25T02:11:31;21.10;99.90
62912;DHT22;49111;51.028;4.218;2022-08-25T02:13:58;21.10;99.90
62912;DHT22;49111;51.028;4.218;2022-08-25T02:16:29;21.10;99.90
62912;DHT22;49111;51.028;4.218;2022-08-25T02:18:56;21.10;99.90
62912;DHT22;49111;51.028;4.218;2022-08-25T02:21:22;21.10;99.90
62912;DHT22;49111;51.028;4.218;2022-08-25T02:23:48;21.10;99.90
62912;DHT22;49111;51.028;4.218;2022-08-25T02:26:15;21.10;99.90
62912;DHT22;49111;51.028;4.218;2022-08-25T02:28:48;21.10;99.90
62912;DHT22;49111;51.028;4.218;2022-08-25T02:31:16;20.90;99.90
62912;DHT22;49111;51.028;4.218;2022-08-25T02:33:42;20.80;99.90
62912;DHT22;49111;51.028;4.218;2022-08-25T02:36:08;20.80;99.90
62912;DHT22;49111;51.028;4.218;2022-08-25T02:38:35;20.80;99.90
62912;DHT22;49111;51.028;4.218;2022-08-25T02:41:08;20.80;99.90
62912;DHT22;49111;51.028;4.218;2022-08-25T02:43:35;20.80;99.90
62912;DHT22;49111;51.028;4.218;2022-08-25T02:46:00;20.70;99.90
62912;DHT22;49111;51.028;4.218;2022-08-25T02:48:26;20.80;99.90
62912;DHT22;49111;51.028;4.218;2022-08-25T02:50:53;20.80;99.90
62912;DHT22;49111;51.028;4.218;2022-08-25T02:53:19;20.80;99.90
62912;DHT22;49111;51.028;4.218;2022-08-25T02:55:45;20.80;99.90
62912;DHT22;49111;51.028;4.218;2022-08-25T02:58:13;20.80;99.90
62912;DHT22;49111;51.028;4.218;2022-08-25T03:00:39;20.70;99.90
62912;DHT22;49111;51.028;4.218;2022-08-25T03:03:05;20.70;99.90
62912;DHT22;49111;51.028;4.218;2022-08-25T03:05:31;20.70;99.90
62912;DHT22;49111;51.028;4.218;2022-08-25T03:07:57;20.70;99.90
62912;DHT22;49111;51.028;4.218;2022-08-25T03:10:24;20.80;99.90
62912;DHT22;49111;51.028;4.218;2022-08-25T03:12:50;20.70;99.90
62912;DHT22;49111;51.028;4.218;2022-08-25T03:15:16;20.80;99.90
62912;DHT22;49111;51.028;4.218;2022-08-25T03:17:46;20.80;99.90
62912;DHT22;49111;51.028;4.218;2022-08-25T03:20:14;20.80;99.90
62912;DHT22;49111;51.028;4.218;2022-08-25T03:22:40;20.80;99.90
62912;DHT22;49111;51.028;4.218;2022-08-25T03:25:07;20.80;99.90
62912;DHT22;49111;51.028;4.218;2022-08-25T03:27:52;20.80;99.90
62912;DHT22;49111;51.028;4.218;2022-08-25T03:30:18;20.80;99.90
62912;DHT22;49111;51.028;4.218;2022-08-25T03:32:44;20.70;99.90
62912;DHT22;49111;51.028;4.218;2022-08-25T03:35:10;20.50;99.90
62912;DHT22;49111;51.028;4.218;2022-08-25T03:37:36;20.40;99.90
62912;DHT22;49111;51.028;4.218;2022-08-25T03:40:04;20.30;99.90
62912;DHT22;49111;51.028;4.218;2022-08-25T03:42:30;20.40;99.90
62912;DHT22;49111;51.028;4.218;2022-08-25T03:44:56;20.30;99.90
62912;DHT22;49111;51.028;4.218;2022-08-25T03:47:22;20.30;99.90
62912;DHT22;49111;51.028;4.218;2022-08-25T03:49:51;20.30;99.90
62912;DHT22;49111;51.028;4.218;2022-08-25T03:52:17;20.30;99.90
62912;DHT22;49111;51.028;4.218;2022-08-25T03:54:43;20.30;99.90
62912;DHT22;49111;51.028;4.218;2022-08-25T03:57:10;20.30;99.90
62912;DHT22;49111;51.028;4.218;2022-08-25T03:59:35;20.30;99.90
62912;DHT22;49111;51.028;4.218;2022-08-25T04:02:07;20.30;99.90
62912;DHT22;49111;51.028;4.218;2022-08-25T04:04:33;20.20;99.90
62912;DHT22;49111;51.028;4.218;2022-08-25T04:06:59;20.10;99.90
62912;DHT22;49111;51.028;4.218;2022-08-25T04:09:25;20.10;99.90
62912;DHT22;49111;51.028;4.218;2022-08-25T04:11:51;20.10;99.90
62912;DHT22;49111;51.028;4.218;2022-08-25T04:14:18;20.10;99.90
62912;DHT22;49111;51.028;4.218;2022-08-25T04:16:44;20.10;99.90
62912;DHT22;49111;51.028;4.218;2022-08-25T04:19:10;20.00;99.90
62912;DHT22;49111;51.028;4.218;2022-08-25T04:21:38;20.00;99.90
62912;DHT22;49111;51.028;4.218;2022-08-25T04:24:05;20.10;99.90
62912;DHT22;49111;51.028;4.218;2022-08-25T04:26:37;20.00;99.90
62912;DHT22;49111;51.028;4.218;2022-08-25T04:29:04;20.00;99.90
62912;DHT22;49111;51.028;4.218;2022-08-25T04:31:30;20.00;99.90
62912;DHT22;49111;51.028;4.218;2022-08-25T04:33:57;20.10;99.90
62912;DHT22;49111;51.028;4.218;2022-08-25T04:36:23;20.10;99.90
62912;DHT22;49111;51.028;4.218;2022-08-25T04:38:49;20.10;99.90
62912;DHT22;49111;51.028;4.218;2022-08-25T04:41:17;20.10;99.90
62912;DHT22;49111;51.028;4.218;2022-08-25T04:43:44;20.10;99.90
62912;DHT22;49111;51.028;4.218;2022-08-25T04:46:19;20.10;99.90
62912;DHT22;49111;51.028;4.218;2022-08-25T04:48:45;20.00;99.90
62912;DHT22;49111;51.028;4.218;2022-08-25T04:51:14;20.00;99.90
62912;DHT22;49111;51.028;4.218;2022-08-25T04:53:40;20.00;99.90
62912;DHT22;49111;51.028;4.218;2022-08-25T04:56:16;20.00;99.90
62912;DHT22;49111;51.028;4.218;2022-08-25T04:58:43;20.00;99.90
62912;DHT22;49111;51.028;4.218;2022-08-25T05:01:14;20.00;99.90
62912;DHT22;49111;51.028;4.218;2022-08-25T05:03:41;20.00;99.90
62912;DHT22;49111;51.028;4.218;2022-08-25T05:06:07;20.00;99.90
62912;DHT22;49111;51.028;4.218;2022-08-25T05:08:34;19.90;99.90
62912;DHT22;49111;51.028;4.218;2022-08-25T05:11:07;19.90;99.90
62912;DHT22;49111;51.028;4.218;2022-08-25T05:13:35;20.00;99.90
62912;DHT22;49111;51.028;4.218;2022-08-25T05:16:01;20.00;99.90
62912;DHT22;49111;51.028;4.218;2022-08-25T05:18:29;20.00;99.90
62912;DHT22;49111;51.028;4.218;2022-08-25T05:20:55;20.00;99.90
62912;DHT22;49111;51.028;4.218;2022-08-25T05:23:22;19.90;99.90
62912;DHT22;49111;51.028;4.218;2022-08-25T05:25:50;19.70;99.90
62912;DHT22;49111;51.028;4.218;2022-08-25T05:28:17;19.80;99.90
62912;DHT22;49111;51.028;4.218;2022-08-25T05:30:43;19.90;99.90
62912;DHT22;49111;51.028;4.218;2022-08-25T05:33:10;19.90;99.90
62912;DHT22;49111;51.028;4.218;2022-08-25T05:35:37;20.00;99.90
62912;DHT22;49111;51.028;4.218;2022-08-25T05:38:04;20.00;99.90
62912;DHT22;49111;51.028;4.218;2022-08-25T05:40:31;20.00;99.90
62912;DHT22;49111;51.028;4.218;2022-08-25T05:42:57;20.10;99.90
62912;DHT22;49111;51.028;4.218;2022-08-25T05:45:23;20.10;99.90
62912;DHT22;49111;51.028;4.218;2022-08-25T05:47:49;20.20;99.90
62912;DHT22;49111;51.028;4.218;2022-08-25T05:50:16;20.20;99.90
62912;DHT22;49111;51.028;4.218;2022-08-25T05:52:43;20.20;99.90
62912;DHT22;49111;51.028;4.218;2022-08-25T05:55:10;20.30;99.90
62912;DHT22;49111;51.028;4.218;2022-08-25T05:57:36;20.30;99.90
62912;DHT22;49111;51.028;4.218;2022-08-25T06:00:04;20.30;99.90
62912;DHT22;49111;51.028;4.218;2022-08-25T06:02:38;20.40;99.90
62912;DHT22;49111;51.028;4.218;2022-08-25T06:05:21;20.40;99.90
62912;DHT22;49111;51.028;4.218;2022-08-25T06:07:49;20.50;99.90
62912;DHT22;49111;51.028;4.218;2022-08-25T06:10:17;20.50;99.90
62912;DHT22;49111;51.028;4.218;2022-08-25T06:12:45;20.50;99.90
62912;DHT22;49111;51.028;4.218;2022-08-25T06:15:17;20.60;99.90
62912;DHT22;49111;51.028;4.218;2022-08-25T06:17:43;20.60;99.90
62912;DHT22;49111;51.028;4.218;2022-08-25T06:20:12;20.70;99.90
62912;DHT22;49111;51.028;4.218;2022-08-25T06:22:38;20.70;99.90
62912;DHT22;49111;51.028;4.218;2022-08-25T06:25:06;20.80;99.90
62912;DHT22;49111;51.028;4.218;2022-08-25T06:27:33;20.90;99.90
62912;DHT22;49111;51.028;4.218;2022-08-25T06:29:59;20.90;99.90
62912;DHT22;49111;51.028;4.218;2022-08-25T06:32:33;21.00;99.90
62912;DHT22;49111;51.028;4.218;2022-08-25T06:35:02;21.00;99.90
62912;DHT22;49111;51.028;4.218;2022-08-25T06:37:28;21.10;99.90
62912;DHT22;49111;51.028;4.218;2022-08-25T06:39:53;21.20;99.90
62912;DHT22;49111;51.028;4.218;2022-08-25T06:42:20;21.30;99.90
62912;DHT22;49111;51.028;4.218;2022-08-25T06:44:46;21.40;99.90
62912;DHT22;49111;51.028;4.218;2022-08-25T06:47:12;21.50;99.90
62912;DHT22;49111;51.028;4.218;2022-08-25T06:49:41;21.60;99.90
62912;DHT22;49111;51.028;4.218;2022-08-25T06:52:07;21.70;99.90
62912;DHT22;49111;51.028;4.218;2022-08-25T06:54:33;21.80;99.90
62912;DHT22;49111;51.028;4.218;2022-08-25T06:56:59;21.90;99.90
62912;DHT22;49111;51.028;4.218;2022-08-25T06:59:26;21.90;99.90
62912;DHT22;49111;51.028;4.218;2022-08-25T07:01:52;22.00;99.90
62912;DHT22;49111;51.028;4.218;2022-08-25T07:04:18;22.20;99.90
62912;DHT22;49111;51.028;4.218;2022-08-25T07:06:43;22.30;99.90
62912;DHT22;49111;51.028;4.218;2022-08-25T07:09:10;22.50;99.90
62912;DHT22;49111;51.028;4.218;2022-08-25T07:11:37;22.50;99.90
62912;DHT22;49111;51.028;4.218;2022-08-25T07:14:04;22.70;99.90
62912;DHT22;49111;51.028;4.218;2022-08-25T07:16:32;22.80;99.90
62912;DHT22;49111;51.028;4.218;2022-08-25T07:18:59;22.90;99.90
62912;DHT22;49111;51.028;4.218;2022-08-25T07:21:28;23.00;99.90
62912;DHT22;49111;51.028;4.218;2022-08-25T07:23:54;23.00;99.90
62912;DHT22;49111;51.028;4.218;2022-08-25T07:26:26;23.00;99.90
62912;DHT22;49111;51.028;4.218;2022-08-25T07:28:54;23.10;99.90
62912;DHT22;49111;51.028;4.218;2022-08-25T07:31:20;23.10;99.80
62912;DHT22;49111;51.028;4.218;2022-08-25T07:33:46;23.10;99.70
62912;DHT22;49111;51.028;4.218;2022-08-25T07:36:31;23.20;99.60
62912;DHT22;49111;51.028;4.218;2022-08-25T07:38:58;23.20;99.60
62912;DHT22;49111;51.028;4.218;2022-08-25T07:41:25;23.20;99.30
62912;DHT22;49111;51.028;4.218;2022-08-25T07:43:51;23.30;99.30
62912;DHT22;49111;51.028;4.218;2022-08-25T07:46:17;23.30;99.20
62912;DHT22;49111;51.028;4.218;2022-08-25T07:48:43;23.40;99.00
62912;DHT22;49111;51.028;4.218;2022-08-25T07:51:11;23.40;98.60
62912;DHT22;49111;51.028;4.218;2022-08-25T07:53:39;23.50;98.10
62912;DHT22;49111;51.028;4.218;2022-08-25T07:56:14;23.60;97.70
62912;DHT22;49111;51.028;4.218;2022-08-25T07:58:41;23.60;97.40
62912;DHT22;49111;51.028;4.218;2022-08-25T08:01:13;23.70;97.40
62912;DHT22;49111;51.028;4.218;2022-08-25T08:03:39;23.80;97.30
62912;DHT22;49111;51.028;4.218;2022-08-25T08:06:11;23.80;97.40
62912;DHT22;49111;51.028;4.218;2022-08-25T08:08:39;23.80;97.10
62912;DHT22;49111;51.028;4.218;2022-08-25T08:11:30;23.90;96.90
62912;DHT22;49111;51.028;4.218;2022-08-25T08:13:58;24.00;96.30
62912;DHT22;49111;51.028;4.218;2022-08-25T08:16:27;24.00;95.80
62912;DHT22;49111;51.028;4.218;2022-08-25T08:18:54;24.10;95.70
62912;DHT22;49111;51.028;4.218;2022-08-25T08:21:23;24.10;95.60
62912;DHT22;49111;51.028;4.218;2022-08-25T08:23:50;24.20;95.40
62912;DHT22;49111;51.028;4.218;2022-08-25T08:26:16;24.20;95.20
62912;DHT22;49111;51.028;4.218;2022-08-25T08:28:43;24.30;95.20
62912;DHT22;49111;51.028;4.218;2022-08-25T08:31:09;24.40;94.90
62912;DHT22;49111;51.028;4.218;2022-08-25T08:33:35;24.40;95.10
62912;DHT22;49111;51.028;4.218;2022-08-25T08:36:09;24.50;94.70
62912;DHT22;49111;51.028;4.218;2022-08-25T08:38:37;24.60;94.50
62912;DHT22;49111;51.028;4.218;2022-08-25T08:52:40;25.10;93.20
62912;DHT22;49111;51.028;4.218;2022-08-25T08:55:29;25.20;92.80
62912;DHT22;49111;51.028;4.218;2022-08-25T08:57:58;25.30;93.80
62912;DHT22;49111;51.028;4.218;2022-08-25T09:00:26;25.20;92.60
62912;DHT22;49111;51.028;4.218;2022-08-25T09:03:11;25.30;92.30
62912;DHT22;49111;51.028;4.218;2022-08-25T09:05:48;25.40;91.90
62912;DHT22;49111;51.028;4.218;2022-08-25T09:08:16;25.50;91.80
62912;DHT22;49111;51.028;4.218;2022-08-25T09:11:12;25.60;92.40
62912;DHT22;49111;51.028;4.218;2022-08-25T09:14:07;25.80;92.10
62912;DHT22;49111;51.028;4.218;2022-08-25T09:24:46;26.20;90.90
62912;DHT22;49111;51.028;4.218;2022-08-25T09:30:18;26.40;91.20
62912;DHT22;49111;51.028;4.218;2022-08-25T09:32:46;26.60;90.30
62912;DHT22;49111;51.028;4.218;2022-08-25T09:35:27;26.70;89.20
62912;DHT22;49111;51.028;4.218;2022-08-25T09:38:02;26.90;88.50
62912;DHT22;49111;51.028;4.218;2022-08-25T09:40:31;27.10;88.20
62912;DHT22;49111;51.028;4.218;2022-08-25T09:43:01;27.20;87.50
62912;DHT22;49111;51.028;4.218;2022-08-25T09:45:39;27.30;88.50
62912;DHT22;49111;51.028;4.218;2022-08-25T09:48:26;27.50;87.80
62912;DHT22;49111;51.028;4.218;2022-08-25T09:51:15;27.60;83.00
62912;DHT22;49111;51.028;4.218;2022-08-25T09:53:53;27.70;82.30
62912;DHT22;49111;51.028;4.218;2022-08-25T09:56:22;28.00;77.10
62912;DHT22;49111;51.028;4.218;2022-08-25T09:58:49;28.20;76.50
62912;DHT22;49111;51.028;4.218;2022-08-25T10:01:18;28.40;78.70
62912;DHT22;49111;51.028;4.218;2022-08-25T10:04:00;28.40;79.70
62912;DHT22;49111;51.028;4.218;2022-08-25T10:06:46;28.50;77.10
62912;DHT22;49111;51.028;4.218;2022-08-25T10:09:26;28.60;75.20
62912;DHT22;49111;51.028;4.218;2022-08-25T10:11:54;28.70;73.70
62912;DHT22;49111;51.028;4.218;2022-08-25T10:16:49;29.00;70.40
62912;DHT22;49111;51.028;4.218;2022-08-25T10:22:03;29.20;68.10
62912;DHT22;49111;51.028;4.218;2022-08-25T10:24:29;29.40;64.80
62912;DHT22;49111;51.028;4.218;2022-08-25T10:27:26;29.60;63.30
62912;DHT22;49111;51.028;4.218;2022-08-25T10:33:16;29.90;62.30
62912;DHT22;49111;51.028;4.218;2022-08-25T10:38:56;30.00;65.60
62912;DHT22;49111;51.028;4.218;2022-08-25T10:41:38;30.20;63.20
62912;DHT22;49111;51.028;4.218;2022-08-25T10:52:38;30.60;60.70
62912;DHT22;49111;51.028;4.218;2022-08-25T10:55:31;30.70;60.30
62912;DHT22;49111;51.028;4.218;2022-08-25T10:58:21;30.80;58.80
62912;DHT22;49111;51.028;4.218;2022-08-25T11:03:56;31.10;57.50
62912;DHT22;49111;51.028;4.218;2022-08-25T11:09:11;31.40;55.70
62912;DHT22;49111;51.028;4.218;2022-08-25T11:11:45;31.40;56.40
62912;DHT22;49111;51.028;4.218;2022-08-25T11:14:19;31.50;55.20
62912;DHT22;49111;51.028;4.218;2022-08-25T11:19:42;31.60;55.90
62912;DHT22;49111;51.028;4.218;2022-08-25T11:22:28;31.70;57.50
62912;DHT22;49111;51.028;4.218;2022-08-25T11:27:51;31.70;55.30
62912;DHT22;49111;51.028;4.218;2022-08-25T11:30:19;31.90;58.20
62912;DHT22;49111;51.028;4.218;2022-08-25T11:32:51;31.90;56.60
62912;DHT22;49111;51.028;4.218;2022-08-25T11:35:25;32.00;56.20
62912;DHT22;49111;51.028;4.218;2022-08-25T11:38:02;32.10;54.30
62912;DHT22;49111;51.028;4.218;2022-08-25T11:40:39;32.10;54.30
62912;DHT22;49111;51.028;4.218;2022-08-25T11:43:39;32.20;55.60
62912;DHT22;49111;51.028;4.218;2022-08-25T11:51:44;32.50;53.70
62912;DHT22;49111;51.028;4.218;2022-08-25T11:56:41;32.70;54.00
62912;DHT22;49111;51.028;4.218;2022-08-25T11:59:07;32.80;53.80
62912;DHT22;49111;51.028;4.218;2022-08-25T12:04:29;33.10;53.50
62912;DHT22;49111;51.028;4.218;2022-08-25T12:09:32;33.20;53.30
62912;DHT22;49111;51.028;4.218;2022-08-25T12:11:58;33.20;55.20
62912;DHT22;49111;51.028;4.218;2022-08-25T12:14:46;33.20;53.90
62912;DHT22;49111;51.028;4.218;2022-08-25T12:17:36;33.30;53.30
62912;DHT22;49111;51.028;4.218;2022-08-25T12:20:04;33.50;51.90
62912;DHT22;49111;51.028;4.218;2022-08-25T12:25:27;33.70;51.40
62912;DHT22;49111;51.028;4.218;2022-08-25T12:28:45;33.60;50.30
62912;DHT22;49111;51.028;4.218;2022-08-25T12:31:10;33.50;51.60
62912;DHT22;49111;51.028;4.218;2022-08-25T12:36:37;33.60;51.80
62912;DHT22;49111;51.028;4.218;2022-08-25T12:39:36;33.80;52.80
62912;DHT22;49111;51.028;4.218;2022-08-25T12:47:46;33.90;52.70
62912;DHT22;49111;51.028;4.218;2022-08-25T12:50:40;33.80;51.80
62912;DHT22;49111;51.028;4.218;2022-08-25T12:55:48;33.70;52.40
62912;DHT22;49111;51.028;4.218;2022-08-25T12:58:16;33.70;54.60
62912;DHT22;49111;51.028;4.218;2022-08-25T13:06:32;33.70;55.30
62912;DHT22;49111;51.028;4.218;2022-08-25T13:09:10;33.60;52.30
62912;DHT22;49111;51.028;4.218;2022-08-25T13:12:01;33.10;61.20
62912;DHT22;49111;51.028;4.218;2022-08-25T13:17:01;31.90;64.60
62912;DHT22;49111;51.028;4.218;2022-08-25T13:19:28;31.50;66.10
62912;DHT22;49111;51.028;4.218;2022-08-25T13:21:55;31.40;67.30
62912;DHT22;49111;51.028;4.218;2022-08-25T13:24:25;31.20;68.30
62912;DHT22;49111;51.028;4.218;2022-08-25T13:26:59;31.10;68.80
62912;DHT22;49111;51.028;4.218;2022-08-25T13:29:28;30.90;69.00
62912;DHT22;49111;51.028;4.218;2022-08-25T13:34:31;30.60;69.80
62912;DHT22;49111;51.028;4.218;2022-08-25T13:37:08;30.60;69.20
62912;DHT22;49111;51.028;4.218;2022-08-25T13:40:21;30.50;69.30
62912;DHT22;49111;51.028;4.218;2022-08-25T13:42:51;30.10;71.00
62912;DHT22;49111;51.028;4.218;2022-08-25T13:45:20;30.10;71.50
62912;DHT22;49111;51.028;4.218;2022-08-25T13:47:47;30.10;71.40
62912;DHT22;49111;51.028;4.218;2022-08-25T13:55:20;30.40;72.60
62912;DHT22;49111;51.028;4.218;2022-08-25T13:57:47;30.40;73.10
62912;DHT22;49111;51.028;4.218;2022-08-25T14:00:13;30.40;73.10
62912;DHT22;49111;51.028;4.218;2022-08-25T14:02:52;30.30;73.00
62912;DHT22;49111;51.028;4.218;2022-08-25T14:08:00;30.30;74.00
62912;DHT22;49111;51.028;4.218;2022-08-25T14:10:40;30.10;73.90
62912;DHT22;49111;51.028;4.218;2022-08-25T14:15:35;30.20;70.00
62912;DHT22;49111;51.028;4.218;2022-08-25T14:20:30;30.40;70.60
62912;DHT22;49111;51.028;4.218;2022-08-25T14:22:58;30.60;69.80
62912;DHT22;49111;51.028;4.218;2022-08-25T14:25:26;30.80;69.30
62912;DHT22;49111;51.028;4.218;2022-08-25T14:28:01;31.00;69.50
62912;DHT22;49111;51.028;4.218;2022-08-25T14:30:30;31.20;68.00
62912;DHT22;49111;51.028;4.218;2022-08-25T14:32:58;31.30;67.30
62912;DHT22;49111;51.028;4.218;2022-08-25T14:35:24;31.40;67.80
62912;DHT22;49111;51.028;4.218;2022-08-25T14:37:50;31.40;67.40
62912;DHT22;49111;51.028;4.218;2022-08-25T14:40:17;31.50;68.60
62912;DHT22;49111;51.028;4.218;2022-08-25T14:42:45;31.40;67.60
62912;DHT22;49111;51.028;4.218;2022-08-25T14:45:16;31.40;67.80
62912;DHT22;49111;51.028;4.218;2022-08-25T14:47:43;31.20;68.80
62912;DHT22;49111;51.028;4.218;2022-08-25T14:50:11;31.10;70.40
62912;DHT22;49111;51.028;4.218;2022-08-25T14:52:40;30.90;71.30
62912;DHT22;49111;51.028;4.218;2022-08-25T14:55:08;30.80;71.80
62912;DHT22;49111;51.028;4.218;2022-08-25T14:57:34;30.80;72.60
62912;DHT22;49111;51.028;4.218;2022-08-25T15:00:00;30.70;72.70
62912;DHT22;49111;51.028;4.218;2022-08-25T15:02:28;30.50;74.00
62912;DHT22;49111;51.028;4.218;2022-08-25T15:05:02;30.70;73.80
62912;DHT22;49111;51.028;4.218;2022-08-25T15:07:31;30.70;68.50
62912;DHT22;49111;51.028;4.218;2022-08-25T15:10:16;30.60;70.40
62912;DHT22;49111;51.028;4.218;2022-08-25T15:12:42;30.40;69.80
62912;DHT22;49111;51.028;4.218;2022-08-25T15:15:09;30.20;72.40
62912;DHT22;49111;51.028;4.218;2022-08-25T15:17:36;30.00;72.40
62912;DHT22;49111;51.028;4.218;2022-08-25T15:20:02;29.90;72.60
62912;DHT22;49111;51.028;4.218;2022-08-25T15:22:28;29.80;74.10
62912;DHT22;49111;51.028;4.218;2022-08-25T15:24:54;29.60;76.10
62912;DHT22;49111;51.028;4.218;2022-08-25T15:27:21;29.50;77.60
62912;DHT22;49111;51.028;4.218;2022-08-25T15:29:47;29.60;78.40
62912;DHT22;49111;51.028;4.218;2022-08-25T15:32:13;29.70;79.70
62912;DHT22;49111;51.028;4.218;2022-08-25T15:34:39;29.70;80.40
62912;DHT22;49111;51.028;4.218;2022-08-25T15:37:07;29.90;80.30
62912;DHT22;49111;51.028;4.218;2022-08-25T15:39:34;29.70;81.10
62912;DHT22;49111;51.028;4.218;2022-08-25T15:42:00;29.60;81.00
62912;DHT22;49111;51.028;4.218;2022-08-25T15:44:27;29.60;79.70
62912;DHT22;49111;51.028;4.218;2022-08-25T15:46:53;29.50;80.50
62912;DHT22;49111;51.028;4.218;2022-08-25T15:49:19;29.50;80.90
62912;DHT22;49111;51.028;4.218;2022-08-25T15:51:44;29.40;82.00
62912;DHT22;49111;51.028;4.218;2022-08-25T15:54:10;29.20;83.00
62912;DHT22;49111;51.028;4.218;2022-08-25T15:56:39;29.10;83.80
62912;DHT22;49111;51.028;4.218;2022-08-25T15:59:05;28.90;84.50
62912;DHT22;49111;51.028;4.218;2022-08-25T16:01:31;28.70;85.00
62912;DHT22;49111;51.028;4.218;2022-08-25T16:03:57;28.60;84.80
62912;DHT22;49111;51.028;4.218;2022-08-25T16:06:24;28.60;85.00
62912;DHT22;49111;51.028;4.218;2022-08-25T16:08:50;28.50;84.80
62912;DHT22;49111;51.028;4.218;2022-08-25T16:11:22;28.20;85.70
62912;DHT22;49111;51.028;4.218;2022-08-25T16:13:49;28.10;85.60
62912;DHT22;49111;51.028;4.218;2022-08-25T16:16:17;28.00;86.60
62912;DHT22;49111;51.028;4.218;2022-08-25T16:18:44;28.00;86.30
62912;DHT22;49111;51.028;4.218;2022-08-25T16:21:11;28.00;86.70
62912;DHT22;49111;51.028;4.218;2022-08-25T16:23:38;27.90;87.40
62912;DHT22;49111;51.028;4.218;2022-08-25T16:26:07;27.90;87.60
62912;DHT22;49111;51.028;4.218;2022-08-25T16:28:40;27.90;88.20
62912;DHT22;49111;51.028;4.218;2022-08-25T16:31:11;27.80;88.00
62912;DHT22;49111;51.028;4.218;2022-08-25T16:33:38;27.90;87.90
62912;DHT22;49111;51.028;4.218;2022-08-25T16:36:14;27.70;88.70
62912;DHT22;49111;51.028;4.218;2022-08-25T16:38:42;27.80;88.80
62912;DHT22;49111;51.028;4.218;2022-08-25T16:41:10;27.80;89.20
62912;DHT22;49111;51.028;4.218;2022-08-25T16:43:36;27.80;89.30
62912;DHT22;49111;51.028;4.218;2022-08-25T16:46:08;27.60;89.60
62912;DHT22;49111;51.028;4.218;2022-08-25T16:48:36;27.40;89.30
62912;DHT22;49111;51.028;4.218;2022-08-25T16:51:11;27.40;89.40
62912;DHT22;49111;51.028;4.218;2022-08-25T16:53:38;27.10;90.10
62912;DHT22;49111;51.028;4.218;2022-08-25T16:56:23;27.00;90.30
62912;DHT22;49111;51.028;4.218;2022-08-25T16:58:59;27.00;90.30
62912;DHT22;49111;51.028;4.218;2022-08-25T17:01:28;26.90;90.60
62912;DHT22;49111;51.028;4.218;2022-08-25T17:03:55;26.80;90.80
62912;DHT22;49111;51.028;4.218;2022-08-25T17:06:23;26.60;91.20
62912;DHT22;49111;51.028;4.218;2022-08-25T17:08:49;26.60;91.20
62912;DHT22;49111;51.028;4.218;2022-08-25T17:11:24;26.60;91.20
62912;DHT22;49111;51.028;4.218;2022-08-25T17:13:54;26.60;91.50
62912;DHT22;49111;51.028;4.218;2022-08-25T17:16:22;26.50;91.60
62912;DHT22;49111;51.028;4.218;2022-08-25T17:18:50;26.60;91.40
62912;DHT22;49111;51.028;4.218;2022-08-25T17:21:18;26.50;91.40
62912;DHT22;49111;51.028;4.218;2022-08-25T17:23:46;26.40;91.80
62912;DHT22;49111;51.028;4.218;2022-08-25T17:26:14;26.40;91.70
62912;DHT22;49111;51.028;4.218;2022-08-25T17:28:41;26.30;91.90
62912;DHT22;49111;51.028;4.218;2022-08-25T17:31:08;26.20;92.30
62912;DHT22;49111;51.028;4.218;2022-08-25T17:33:35;26.20;92.30
62912;DHT22;49111;51.028;4.218;2022-08-25T17:36:01;26.20;92.60